sensor_id;sensor_type;location;lat;lon;timestamp;pressure;altitude;pressure_sealevel;temperature
13219;BMP180;6674;49.152;11.918;2023-05-07T00:00:37;96020.22;;;15.44
13219;BMP180;6674;49.152;11.918;2023-05-07T00:03:05;96015.84;;;15.45
13219;BMP180;6674;49.152;11.918;2023-05-07T00:05:32;96030.63;;;15.44
13219;BMP180;6674;49.152;11.918;2023-05-07T00:07:58;96025.13;;;15.41
13219;BMP180;6674;49.152;11.918;2023-05-07T00:10:25;96032.63;;;15.37
13219;BMP180;6674;49.152;11.918;2023-05-07T00:12:52;96025.31;;;15.34
13219;BMP180;6674;49.152;11.918;2023-05-07T00:15:19;96029.97;;;15.32
13219;BMP180;6674;49.152;11.918;2023-05-07T00:17:47;96026.31;;;15.28
13219;BMP180;6674;49.152;11.918;2023-05-07T00:20:14;96028.84;;;15.23
13219;BMP180;6674;49.152;11.918;2023-05-07T00:22:41;96022.66;;;15.29
13219;BMP180;6674;49.152;11.918;2023-05-07T00:25:08;96035.44;;;15.14
13219;BMP180;6674;49.152;11.918;2023-05-07T00:27:35;96036.41;;;15.08
13219;BMP180;6674;49.152;11.918;2023-05-07T00:30:02;96037.44;;;15.08
13219;BMP180;6674;49.152;11.918;2023-05-07T00:32:29;96036.84;;;15.01
13219;BMP180;6674;49.152;11.918;2023-05-07T00:34:56;96033.63;;;14.94
13219;BMP180;6674;49.152;11.918;2023-05-07T00:37:23;96038.03;;;14.93
13219;BMP180;6674;49.152;11.918;2023-05-07T00:39:50;96032.00;;;14.88
13219;BMP180;6674;49.152;11.918;2023-05-07T00:42:17;96046.47;;;14.84
13219;BMP180;6674;49.152;11.918;2023-05-07T00:44:43;96038.06;;;14.77
13219;BMP180;6674;49.152;11.918;2023-05-07T00:47:11;96041.38;;;14.72
13219;BMP180;6674;49.152;11.918;2023-05-07T00:49:39;96037.69;;;14.68
13219;BMP180;6674;49.152;11.918;2023-05-07T00:52:09;96030.63;;;14.64
13219;BMP180;6674;49.152;11.918;2023-05-07T00:54:37;96032.59;;;14.57
13219;BMP180;6674;49.152;11.918;2023-05-07T00:57:03;96043.38;;;14.49
13219;BMP180;6674;49.152;11.918;2023-05-07T00:59:31;96035.97;;;14.41
13219;BMP180;6674;49.152;11.918;2023-05-07T01:01:58;96046.28;;;14.36
13219;BMP180;6674;49.152;11.918;2023-05-07T01:04:26;96043.38;;;14.33
13219;BMP180;6674;49.152;11.918;2023-05-07T01:06:54;96044.38;;;14.32
13219;BMP180;6674;49.152;11.918;2023-05-07T01:09:23;96038.88;;;14.28
13219;BMP180;6674;49.152;11.918;2023-05-07T01:11:52;96039.34;;;14.25
13219;BMP180;6674;49.152;11.918;2023-05-07T01:14:19;96028.66;;;14.22
13219;BMP180;6674;49.152;11.918;2023-05-07T01:16:46;96033.53;;;14.19
13219;BMP180;6674;49.152;11.918;2023-05-07T01:19:14;96033.53;;;14.19
13219;BMP180;6674;49.152;11.918;2023-05-07T01:21:46;96022.06;;;14.15
13219;BMP180;6674;49.152;11.918;2023-05-07T01:24:15;96032.44;;;14.15
13219;BMP180;6674;49.152;11.918;2023-05-07T01:26:43;96036.53;;;14.11
13219;BMP180;6674;49.152;11.918;2023-05-07T01:29:09;96034.94;;;14.10
13219;BMP180;6674;49.152;11.918;2023-05-07T01:31:37;96031.03;;;14.07
13219;BMP180;6674;49.152;11.918;2023-05-07T01:34:05;96030.25;;;14.07
13219;BMP180;6674;49.152;11.918;2023-05-07T01:36:34;96028.88;;;14.04
13219;BMP180;6674;49.152;11.918;2023-05-07T01:39:01;96029.09;;;14.03
13219;BMP180;6674;49.152;11.918;2023-05-07T01:41:29;96035.91;;;14.04
13219;BMP180;6674;49.152;11.918;2023-05-07T01:43:58;96034.75;;;14.00
13219;BMP180;6674;49.152;11.918;2023-05-07T01:46:26;96034.50;;;14.01
13219;BMP180;6674;49.152;11.918;2023-05-07T01:48:52;96026.97;;;14.00
13219;BMP180;6674;49.152;11.918;2023-05-07T01:51:19;96024.38;;;14.00
13219;BMP180;6674;49.152;11.918;2023-05-07T01:53:47;96034.19;;;13.98
13219;BMP180;6674;49.152;11.918;2023-05-07T01:56:16;96041.97;;;13.98
13219;BMP180;6674;49.152;11.918;2023-05-07T01:58:44;96036.78;;;13.98
13219;BMP180;6674;49.152;11.918;2023-05-07T02:01:11;96038.06;;;13.95
13219;BMP180;6674;49.152;11.918;2023-05-07T02:03:37;96028.69;;;13.94
13219;BMP180;6674;49.152;11.918;2023-05-07T02:06:04;96026.09;;;13.94
13219;BMP180;6674;49.152;11.918;2023-05-07T02:08:31;96033.09;;;13.94
13219;BMP180;6674;49.152;11.918;2023-05-07T02:10:58;96035.38;;;13.90
13219;BMP180;6674;49.152;11.918;2023-05-07T02:13:26;96032.44;;;13.87
13219;BMP180;6674;49.152;11.918;2023-05-07T02:15:54;96028.84;;;13.88
13219;BMP180;6674;49.152;11.918;2023-05-07T02:18:21;96038.44;;;13.87
13219;BMP180;6674;49.152;11.918;2023-05-07T02:20:48;96032.94;;;13.84
13219;BMP180;6674;49.152;11.918;2023-05-07T02:23:14;96033.94;;;13.83
13219;BMP180;6674;49.152;11.918;2023-05-07T02:25:41;96035.19;;;13.80
13219;BMP180;6674;49.152;11.918;2023-05-07T02:28:08;96032.59;;;13.80
13219;BMP180;6674;49.152;11.918;2023-05-07T02:30:36;96032.84;;;13.79
13219;BMP180;6674;49.152;11.918;2023-05-07T02:33:04;96033.31;;;13.76
13219;BMP180;6674;49.152;11.918;2023-05-07T02:35:31;96033.75;;;13.73
13219;BMP180;6674;49.152;11.918;2023-05-07T02:37:58;96029.81;;;13.71
13219;BMP180;6674;49.152;11.918;2023-05-07T02:40:24;96039.88;;;13.67
13219;BMP180;6674;49.152;11.918;2023-05-07T02:42:51;96030.53;;;13.66
13219;BMP180;6674;49.152;11.918;2023-05-07T02:45:18;96027.28;;;13.59
13219;BMP180;6674;49.152;11.918;2023-05-07T02:47:44;96025.72;;;13.58
13219;BMP180;6674;49.152;11.918;2023-05-07T02:50:13;96016.91;;;13.59
13219;BMP180;6674;49.152;11.918;2023-05-07T02:52:40;96016.69;;;13.61
13219;BMP180;6674;49.152;11.918;2023-05-07T02:55:07;96016.91;;;13.59
13219;BMP180;6674;49.152;11.918;2023-05-07T02:57:34;96019.19;;;13.56
13219;BMP180;6674;49.152;11.918;2023-05-07T03:00:10;96008.41;;;13.47
13219;BMP180;6674;49.152;11.918;2023-05-07T03:02:37;96022.38;;;13.46
13219;BMP180;6674;49.152;11.918;2023-05-07T03:05:04;96016.41;;;13.46
13219;BMP180;6674;49.152;11.918;2023-05-07T03:07:33;96014.03;;;13.44
13219;BMP180;6674;49.152;11.918;2023-05-07T03:09:59;96013.25;;;13.44
13219;BMP180;6674;49.152;11.918;2023-05-07T03:12:26;96014.28;;;13.43
13219;BMP180;6674;49.152;11.918;2023-05-07T03:14:52;96017.66;;;13.43
13219;BMP180;6674;49.152;11.918;2023-05-07T03:17:20;96010.44;;;13.45
13219;BMP180;6674;49.152;11.918;2023-05-07T03:19:46;96008.31;;;13.42
13219;BMP180;6674;49.152;11.918;2023-05-07T03:22:13;96005.94;;;13.41
13219;BMP180;6674;49.152;11.918;2023-05-07T03:24:42;96016.09;;;13.42
13219;BMP180;6674;49.152;11.918;2023-05-07T03:27:11;96010.03;;;13.37
13219;BMP180;6674;49.152;11.918;2023-05-07T03:29:38;96011.03;;;13.36
13219;BMP180;6674;49.152;11.918;2023-05-07T03:32:05;96004.28;;;13.35
13219;BMP180;6674;49.152;11.918;2023-05-07T03:34:32;96004.19;;;13.30
13219;BMP180;6674;49.152;11.918;2023-05-07T03:36:58;96002.63;;;13.29
13219;BMP180;6674;49.152;11.918;2023-05-07T03:39:25;96010.06;;;13.26
13219;BMP180;6674;49.152;11.918;2023-05-07T03:41:53;96018.84;;;13.25
13219;BMP180;6674;49.152;11.918;2023-05-07T03:44:20;96014.44;;;13.25
13219;BMP180;6674;49.152;11.918;2023-05-07T03:46:46;96019.63;;;13.25
13219;BMP180;6674;49.152;11.918;2023-05-07T03:49:13;96026.63;;;13.25
13219;BMP180;6674;49.152;11.918;2023-05-07T03:51:40;96029.09;;;13.20
13219;BMP180;6674;49.152;11.918;2023-05-07T03:54:07;96031.69;;;13.20
13219;BMP180;6674;49.152;11.918;2023-05-07T03:56:33;96036.88;;;13.20
13219;BMP180;6674;49.152;11.918;2023-05-07T03:59:02;96029.09;;;13.20
13219;BMP180;6674;49.152;11.918;2023-05-07T04:01:29;96030.34;;;13.17
13219;BMP180;6674;49.152;11.918;2023-05-07T04:03:56;96032.06;;;13.12
13219;BMP180;6674;49.152;11.918;2023-05-07T04:06:22;96032.50;;;13.09
13219;BMP180;6674;49.152;11.918;2023-05-07T04:08:49;96043.19;;;13.12
13219;BMP180;6674;49.152;11.918;2023-05-07T04:11:16;96031.50;;;13.10
13219;BMP180;6674;49.152;11.918;2023-05-07T04:13:42;96035.09;;;13.09
13219;BMP180;6674;49.152;11.918;2023-05-07T04:16:10;96047.50;;;13.07
13219;BMP180;6674;49.152;11.918;2023-05-07T04:18:37;96043.09;;;13.07
13219;BMP180;6674;49.152;11.918;2023-05-07T04:21:04;96045.44;;;13.09
13219;BMP180;6674;49.152;11.918;2023-05-07T04:23:31;96047.50;;;13.07
13219;BMP180;6674;49.152;11.918;2023-05-07T04:25:57;96044.44;;;13.10
13219;BMP180;6674;49.152;11.918;2023-05-07T04:28:24;96051.22;;;13.11
13219;BMP180;6674;49.152;11.918;2023-05-07T04:30:51;96051.31;;;13.16
13219;BMP180;6674;49.152;11.918;2023-05-07T04:33:19;96053.44;;;13.19
13219;BMP180;6674;49.152;11.918;2023-05-07T04:35:45;96054.00;;;13.21
13219;BMP180;6674;49.152;11.918;2023-05-07T04:38:12;96046.69;;;13.18
13219;BMP180;6674;49.152;11.918;2023-05-07T04:40:39;96051.66;;;13.19
13219;BMP180;6674;49.152;11.918;2023-05-07T04:43:06;96063.00;;;13.18
13219;BMP180;6674;49.152;11.918;2023-05-07T04:45:34;96051.78;;;13.13
13219;BMP180;6674;49.152;11.918;2023-05-07T04:48:01;96054.13;;;13.14
13219;BMP180;6674;49.152;11.918;2023-05-07T04:50:29;96049.72;;;13.15
13219;BMP180;6674;49.152;11.918;2023-05-07T04:52:56;96054.13;;;13.14
13219;BMP180;6674;49.152;11.918;2023-05-07T04:55:23;96054.22;;;13.19
13219;BMP180;6674;49.152;11.918;2023-05-07T04:57:49;96051.19;;;13.22
13219;BMP180;6674;49.152;11.918;2023-05-07T05:00:16;96057.69;;;13.25
13219;BMP180;6674;49.152;11.918;2023-05-07T05:02:44;96059.06;;;13.27
13219;BMP180;6674;49.152;11.918;2023-05-07T05:05:11;96070.53;;;13.31
13219;BMP180;6674;49.152;11.918;2023-05-07T05:07:39;96069.31;;;13.34
13219;BMP180;6674;49.152;11.918;2023-05-07T05:10:06;96072.44;;;13.36
13219;BMP180;6674;49.152;11.918;2023-05-07T05:12:34;96070.53;;;13.31
13219;BMP180;6674;49.152;11.918;2023-05-07T05:15:01;96073.44;;;13.35
13219;BMP180;6674;49.152;11.918;2023-05-07T05:17:27;96080.75;;;13.37
13219;BMP180;6674;49.152;11.918;2023-05-07T05:19:54;96085.94;;;13.37
13219;BMP180;6674;49.152;11.918;2023-05-07T05:22:21;96092.31;;;13.46
13219;BMP180;6674;49.152;11.918;2023-05-07T05:24:49;96095.38;;;13.55
13219;BMP180;6674;49.152;11.918;2023-05-07T05:27:16;96091.97;;;13.54
13219;BMP180;6674;49.152;11.918;2023-05-07T05:29:42;96096.56;;;13.64
13219;BMP180;6674;49.152;11.918;2023-05-07T05:32:09;96092.84;;;13.71
13219;BMP180;6674;49.152;11.918;2023-05-07T05:34:36;96090.19;;;13.82
13219;BMP180;6674;49.152;11.918;2023-05-07T05:37:02;96081.25;;;13.90
13219;BMP180;6674;49.152;11.918;2023-05-07T05:39:29;96071.06;;;14.00
13219;BMP180;6674;49.152;11.918;2023-05-07T05:41:57;96078.78;;;14.11
13219;BMP180;6674;49.152;11.918;2023-05-07T05:44:24;96089.53;;;14.15
13219;BMP180;6674;49.152;11.918;2023-05-07T05:46:50;96092.75;;;14.22
13219;BMP180;6674;49.152;11.918;2023-05-07T05:49:20;96090.69;;;14.23
13219;BMP180;6674;49.152;11.918;2023-05-07T05:51:47;96088.09;;;14.23
13219;BMP180;6674;49.152;11.918;2023-05-07T05:54:13;96091.78;;;14.27
13219;BMP180;6674;49.152;11.918;2023-05-07T05:56:40;96095.19;;;14.28
13219;BMP180;6674;49.152;11.918;2023-05-07T05:59:08;96094.22;;;14.34
13219;BMP180;6674;49.152;11.918;2023-05-07T06:01:35;96096.13;;;14.38
13219;BMP180;6674;49.152;11.918;2023-05-07T06:04:01;96090.00;;;14.44
13219;BMP180;6674;49.152;11.918;2023-05-07T06:06:28;96099.69;;;14.49
13219;BMP180;6674;49.152;11.918;2023-05-07T06:08:55;96096.94;;;14.55
13219;BMP180;6674;49.152;11.918;2023-05-07T06:11:22;96088.44;;;14.60
13219;BMP180;6674;49.152;11.918;2023-05-07T06:13:49;96094.56;;;14.70
13219;BMP180;6674;49.152;11.918;2023-05-07T06:16:17;96090.84;;;14.82
13219;BMP180;6674;49.152;11.918;2023-05-07T06:18:43;96096.91;;;14.88
13219;BMP180;6674;49.152;11.918;2023-05-07T06:21:13;96102.19;;;14.93
13219;BMP180;6674;49.152;11.918;2023-05-07T06:23:39;96107.75;;;15.01
13219;BMP180;6674;49.152;11.918;2023-05-07T06:26:06;96102.88;;;15.05
13219;BMP180;6674;49.152;11.918;2023-05-07T06:28:40;96104.16;;;15.18
13219;BMP180;6674;49.152;11.918;2023-05-07T06:31:14;96104.50;;;15.27
13219;BMP180;6674;49.152;11.918;2023-05-07T06:33:42;96122.66;;;15.43
13219;BMP180;6674;49.152;11.918;2023-05-07T06:36:09;96124.84;;;15.51
13219;BMP180;6674;49.152;11.918;2023-05-07T06:38:37;96121.03;;;15.58
13219;BMP180;6674;49.152;11.918;2023-05-07T06:41:05;96126.63;;;15.72
13219;BMP180;6674;49.152;11.918;2023-05-07T06:43:32;96122.06;;;15.79
13219;BMP180;6674;49.152;11.918;2023-05-07T06:45:59;96127.38;;;15.89
13219;BMP180;6674;49.152;11.918;2023-05-07T06:48:26;96128.97;;;15.95
13219;BMP180;6674;49.152;11.918;2023-05-07T06:50:54;96131.41;;;16.01
13219;BMP180;6674;49.152;11.918;2023-05-07T06:53:23;96133.75;;;16.02
13219;BMP180;6674;49.152;11.918;2023-05-07T06:55:49;96140.59;;;16.08
13219;BMP180;6674;49.152;11.918;2023-05-07T06:58:17;96141.41;;;16.14
13219;BMP180;6674;49.152;11.918;2023-05-07T07:00:44;96128.47;;;16.19
13219;BMP180;6674;49.152;11.918;2023-05-07T07:03:11;96122.03;;;16.21
13219;BMP180;6674;49.152;11.918;2023-05-07T07:05:37;96123.31;;;16.24
13219;BMP180;6674;49.152;11.918;2023-05-07T07:08:06;96133.50;;;16.25
13219;BMP180;6674;49.152;11.918;2023-05-07T07:10:32;96133.50;;;16.25
13219;BMP180;6674;49.152;11.918;2023-05-07T07:12:59;96137.97;;;16.30
13219;BMP180;6674;49.152;11.918;2023-05-07T07:15:27;96129.44;;;16.34
13219;BMP180;6674;49.152;11.918;2023-05-07T07:17:54;96128.69;;;16.39
13219;BMP180;6674;49.152;11.918;2023-05-07T07:20:21;96133.97;;;16.43
13219;BMP180;6674;49.152;11.918;2023-05-07T07:22:48;96125.94;;;16.50
13219;BMP180;6674;49.152;11.918;2023-05-07T07:25:16;96132.69;;;16.51
13219;BMP180;6674;49.152;11.918;2023-05-07T07:27:43;96134.03;;;16.53
13219;BMP180;6674;49.152;11.918;2023-05-07T07:30:10;96140.31;;;16.57
13219;BMP180;6674;49.152;11.918;2023-05-07T07:32:37;96126.28;;;16.58
13219;BMP180;6674;49.152;11.918;2023-05-07T07:35:04;96115.91;;;16.63
13219;BMP180;6674;49.152;11.918;2023-05-07T07:37:31;96131.22;;;16.60
13219;BMP180;6674;49.152;11.918;2023-05-07T07:39:58;96129.16;;;16.62
13219;BMP180;6674;49.152;11.918;2023-05-07T07:42:26;96128.72;;;16.70
13219;BMP180;6674;49.152;11.918;2023-05-07T07:44:52;96130.25;;;16.71
13219;BMP180;6674;49.152;11.918;2023-05-07T07:47:19;96112.03;;;16.71
13219;BMP180;6674;49.152;11.918;2023-05-07T07:49:45;96124.06;;;16.77
13219;BMP180;6674;49.152;11.918;2023-05-07T07:52:12;96128.78;;;16.80
13219;BMP180;6674;49.152;11.918;2023-05-07T07:54:39;96131.97;;;16.86
13219;BMP180;6674;49.152;11.918;2023-05-07T07:57:05;96120.53;;;16.92
13219;BMP180;6674;49.152;11.918;2023-05-07T07:59:33;96125.81;;;17.02
13219;BMP180;6674;49.152;11.918;2023-05-07T08:02:00;96121.66;;;17.06
13219;BMP180;6674;49.152;11.918;2023-05-07T08:04:27;96124.59;;;17.15
13219;BMP180;6674;49.152;11.918;2023-05-07T08:06:54;96125.19;;;17.22
13219;BMP180;6674;49.152;11.918;2023-05-07T08:09:21;96126.53;;;17.29
13219;BMP180;6674;49.152;11.918;2023-05-07T08:11:48;96130.75;;;17.35
13219;BMP180;6674;49.152;11.918;2023-05-07T08:14:14;96132.63;;;17.44
13219;BMP180;6674;49.152;11.918;2023-05-07T08:16:43;96126.13;;;17.52
13219;BMP180;6674;49.152;11.918;2023-05-07T08:19:12;96136.59;;;17.62
13219;BMP180;6674;49.152;11.918;2023-05-07T08:21:39;96147.63;;;17.69
13219;BMP180;6674;49.152;11.918;2023-05-07T08:24:06;96152.88;;;17.78
13219;BMP180;6674;49.152;11.918;2023-05-07T08:26:33;96145.09;;;17.88
13219;BMP180;6674;49.152;11.918;2023-05-07T08:29:01;96148.47;;;17.89
13219;BMP180;6674;49.152;11.918;2023-05-07T08:31:27;96149.25;;;17.89
13219;BMP180;6674;49.152;11.918;2023-05-07T08:33:56;96147.22;;;18.01
13219;BMP180;6674;49.152;11.918;2023-05-07T08:36:23;96143.88;;;18.11
13219;BMP180;6674;49.152;11.918;2023-05-07T08:38:49;96143.91;;;18.16
13219;BMP180;6674;49.152;11.918;2023-05-07T08:41:16;96148.88;;;18.22
13219;BMP180;6674;49.152;11.918;2023-05-07T08:43:47;96148.34;;;18.25
13219;BMP180;6674;49.152;11.918;2023-05-07T08:46:17;96152.28;;;18.32
13219;BMP180;6674;49.152;11.918;2023-05-07T08:48:44;96144.72;;;18.41
13219;BMP180;6674;49.152;11.918;2023-05-07T08:51:14;96144.72;;;18.46
13219;BMP180;6674;49.152;11.918;2023-05-07T08:53:42;96147.09;;;18.47
13219;BMP180;6674;49.152;11.918;2023-05-07T08:56:09;96145.00;;;18.54
13219;BMP180;6674;49.152;11.918;2023-05-07T08:58:35;96152.31;;;18.67
13219;BMP180;6674;49.152;11.918;2023-05-07T09:01:06;96154.69;;;18.78
13219;BMP180;6674;49.152;11.918;2023-05-07T09:03:33;96152.63;;;18.90
13219;BMP180;6674;49.152;11.918;2023-05-07T09:06:01;96152.13;;;19.03
13219;BMP180;6674;49.152;11.918;2023-05-07T09:08:29;96155.50;;;19.18
13219;BMP180;6674;49.152;11.918;2023-05-07T09:10:58;96158.84;;;19.34
13219;BMP180;6674;49.152;11.918;2023-05-07T09:13:26;96159.38;;;19.46
13219;BMP180;6674;49.152;11.918;2023-05-07T09:15:53;96161.72;;;19.52
13219;BMP180;6674;49.152;11.918;2023-05-07T09:18:20;96157.50;;;19.56
13219;BMP180;6674;49.152;11.918;2023-05-07T09:20:46;96156.72;;;19.55
13219;BMP180;6674;49.152;11.918;2023-05-07T09:23:13;96160.63;;;19.63
13219;BMP180;6674;49.152;11.918;2023-05-07T09:25:42;96155.13;;;19.59
13219;BMP180;6674;49.152;11.918;2023-05-07T09:28:10;96157.22;;;19.67
13219;BMP180;6674;49.152;11.918;2023-05-07T09:30:37;96163.25;;;19.73
13219;BMP180;6674;49.152;11.918;2023-05-07T09:33:04;96139.38;;;19.79
13219;BMP180;6674;49.152;11.918;2023-05-07T09:35:30;96139.91;;;19.91
13219;BMP180;6674;49.152;11.918;2023-05-07T09:37:59;96145.09;;;20.01
13219;BMP180;6674;49.152;11.918;2023-05-07T09:40:30;96146.34;;;20.08
13219;BMP180;6674;49.152;11.918;2023-05-07T09:43:08;96144.97;;;20.21
13219;BMP180;6674;49.152;11.918;2023-05-07T09:45:36;96138.63;;;20.32
13219;BMP180;6674;49.152;11.918;2023-05-07T09:48:05;96141.66;;;20.48
13219;BMP180;6674;49.152;11.918;2023-05-07T09:50:36;96136.09;;;20.60
13219;BMP180;6674;49.152;11.918;2023-05-07T09:53:03;96130.03;;;20.64
13219;BMP180;6674;49.152;11.918;2023-05-07T09:55:30;96130.94;;;20.83
13219;BMP180;6674;49.152;11.918;2023-05-07T09:57:57;96135.56;;;20.96
13219;BMP180;6674;49.152;11.918;2023-05-07T10:00:27;96137.50;;;21.14
13219;BMP180;6674;49.152;11.918;2023-05-07T10:02:57;96141.28;;;21.31
13219;BMP180;6674;49.152;11.918;2023-05-07T10:05:24;96134.03;;;21.51
13219;BMP180;6674;49.152;11.918;2023-05-07T10:07:52;96132.50;;;21.68
13219;BMP180;6674;49.152;11.918;2023-05-07T10:10:21;96134.97;;;21.83
13219;BMP180;6674;49.152;11.918;2023-05-07T10:12:48;96127.91;;;22.02
13219;BMP180;6674;49.152;11.918;2023-05-07T10:15:16;96134.94;;;22.07
13219;BMP180;6674;49.152;11.918;2023-05-07T10:17:44;96129.75;;;22.02
13219;BMP180;6674;49.152;11.918;2023-05-07T10:20:11;96125.91;;;22.12
13219;BMP180;6674;49.152;11.918;2023-05-07T10:22:41;96130.84;;;22.19
13219;BMP180;6674;49.152;11.918;2023-05-07T10:25:14;96133.22;;;22.20
13219;BMP180;6674;49.152;11.918;2023-05-07T10:27:43;96137.41;;;22.40
13219;BMP180;6674;49.152;11.918;2023-05-07T10:30:17;96128.72;;;22.57
13219;BMP180;6674;49.152;11.918;2023-05-07T10:32:49;96129.63;;;22.66
13219;BMP180;6674;49.152;11.918;2023-05-07T10:35:21;96135.06;;;22.75
13219;BMP180;6674;49.152;11.918;2023-05-07T10:37:50;96125.28;;;22.94
13219;BMP180;6674;49.152;11.918;2023-05-07T10:40:17;96119.69;;;23.13
13219;BMP180;6674;49.152;11.918;2023-05-07T10:42:55;96119.94;;;23.30
13219;BMP180;6674;49.152;11.918;2023-05-07T10:45:23;96116.25;;;23.44
13219;BMP180;6674;49.152;11.918;2023-05-07T10:48:09;96117.66;;;23.69
13219;BMP180;6674;49.152;11.918;2023-05-07T10:50:36;96114.72;;;23.97
13219;BMP180;6674;49.152;11.918;2023-05-07T10:53:23;96111.75;;;24.12
13219;BMP180;6674;49.152;11.918;2023-05-07T10:56:24;96100.03;;;24.31
13219;BMP180;6674;49.152;11.918;2023-05-07T10:58:52;96094.53;;;24.63
13219;BMP180;6674;49.152;11.918;2023-05-07T11:01:49;96098.16;;;24.88
13219;BMP180;6674;49.152;11.918;2023-05-07T11:04:17;96100.31;;;24.86
13219;BMP180;6674;49.152;11.918;2023-05-07T11:10:02;96091.44;;;24.61
13219;BMP180;6674;49.152;11.918;2023-05-07T11:12:49;96106.97;;;24.62
13219;BMP180;6674;49.152;11.918;2023-05-07T11:15:34;96106.47;;;24.60
13219;BMP180;6674;49.152;11.918;2023-05-07T11:18:01;96097.81;;;24.60
13219;BMP180;6674;49.152;11.918;2023-05-07T11:20:47;96094.47;;;24.54
13219;BMP180;6674;49.152;11.918;2023-05-07T11:26:28;96090.97;;;24.59
13219;BMP180;6674;49.152;11.918;2023-05-07T11:28:55;96088.69;;;24.66
13219;BMP180;6674;49.152;11.918;2023-05-07T11:31:23;96090.06;;;24.85
13219;BMP180;6674;49.152;11.918;2023-05-07T11:33:52;96085.19;;;24.78
13219;BMP180;6674;49.152;11.918;2023-05-07T11:36:22;96091.19;;;24.71
13219;BMP180;6674;49.152;11.918;2023-05-07T11:38:49;96085.03;;;24.53
13219;BMP180;6674;49.152;11.918;2023-05-07T11:41:16;96084.97;;;24.67
13219;BMP180;6674;49.152;11.918;2023-05-07T11:43:58;96078.44;;;24.86
13219;BMP180;6674;49.152;11.918;2023-05-07T11:46:27;96089.88;;;25.03
13219;BMP180;6674;49.152;11.918;2023-05-07T11:48:55;96082.97;;;25.16
13219;BMP180;6674;49.152;11.918;2023-05-07T11:51:25;96084.44;;;25.30
13219;BMP180;6674;49.152;11.918;2023-05-07T11:53:52;96082.88;;;25.29
13219;BMP180;6674;49.152;11.918;2023-05-07T11:56:20;96090.97;;;25.62
13219;BMP180;6674;49.152;11.918;2023-05-07T11:58:47;96089.81;;;25.85
13219;BMP180;6674;49.152;11.918;2023-05-07T12:01:15;96084.22;;;25.95
13219;BMP180;6674;49.152;11.918;2023-05-07T12:03:45;96090.19;;;26.17
13219;BMP180;6674;49.152;11.918;2023-05-07T12:06:13;96086.78;;;26.17
13219;BMP180;6674;49.152;11.918;2023-05-07T12:08:42;96085.22;;;26.16
13219;BMP180;6674;49.152;11.918;2023-05-07T12:11:12;96075.41;;;26.16
13219;BMP180;6674;49.152;11.918;2023-05-07T12:13:41;96080.38;;;26.09
13219;BMP180;6674;49.152;11.918;2023-05-07T12:16:07;96082.88;;;26.23
13219;BMP180;6674;49.152;11.918;2023-05-07T12:18:35;96087.69;;;26.21
13219;BMP180;6674;49.152;11.918;2023-05-07T12:21:04;96085.81;;;26.21
13219;BMP180;6674;49.152;11.918;2023-05-07T12:23:31;96075.09;;;26.18
13219;BMP180;6674;49.152;11.918;2023-05-07T12:25:59;96088.69;;;26.42
13219;BMP180;6674;49.152;11.918;2023-05-07T12:28:26;96083.09;;;26.51
13219;BMP180;6674;49.152;11.918;2023-05-07T12:30:53;96084.63;;;26.36
13219;BMP180;6674;49.152;11.918;2023-05-07T12:33:24;96093.63;;;26.26
13219;BMP180;6674;49.152;11.918;2023-05-07T12:35:50;96085.34;;;26.19
13219;BMP180;6674;49.152;11.918;2023-05-07T12:38:20;96080.72;;;26.25
13219;BMP180;6674;49.152;11.918;2023-05-07T12:40:48;96069.97;;;26.13
13219;BMP180;6674;49.152;11.918;2023-05-07T12:43:18;96073.22;;;26.18
13219;BMP180;6674;49.152;11.918;2023-05-07T12:45:46;96068.56;;;26.24
13219;BMP180;6674;49.152;11.918;2023-05-07T12:48:13;96066.41;;;26.43
13219;BMP180;6674;49.152;11.918;2023-05-07T12:50:40;96057.53;;;26.55
13219;BMP180;6674;49.152;11.918;2023-05-07T12:53:10;96064.25;;;26.53
13219;BMP180;6674;49.152;11.918;2023-05-07T12:55:41;96054.28;;;26.42
13219;BMP180;6674;49.152;11.918;2023-05-07T12:58:14;96058.50;;;26.59
13219;BMP180;6674;49.152;11.918;2023-05-07T13:00:43;96057.53;;;26.81
13219;BMP180;6674;49.152;11.918;2023-05-07T13:03:11;96053.31;;;26.88
13219;BMP180;6674;49.152;11.918;2023-05-07T13:05:39;96057.19;;;26.99
13219;BMP180;6674;49.152;11.918;2023-05-07T13:08:05;96048.81;;;26.97
13219;BMP180;6674;49.152;11.918;2023-05-07T13:10:34;96048.50;;;26.90
13219;BMP180;6674;49.152;11.918;2023-05-07T13:13:01;96045.34;;;27.05
13219;BMP180;6674;49.152;11.918;2023-05-07T13:15:28;96037.41;;;27.05
13219;BMP180;6674;49.152;11.918;2023-05-07T13:17:56;96040.91;;;26.55
13219;BMP180;6674;49.152;11.918;2023-05-07T13:20:23;96035.75;;;26.58
13219;BMP180;6674;49.152;11.918;2023-05-07T13:22:50;96037.28;;;26.76
13219;BMP180;6674;49.152;11.918;2023-05-07T13:25:16;96039.13;;;27.01
13219;BMP180;6674;49.152;11.918;2023-05-07T13:27:43;96041.31;;;26.99
13219;BMP180;6674;49.152;11.918;2023-05-07T13:30:10;96042.56;;;26.93
13219;BMP180;6674;49.152;11.918;2023-05-07T13:32:37;96024.38;;;26.92
13219;BMP180;6674;49.152;11.918;2023-05-07T13:35:06;96034.63;;;26.93
13219;BMP180;6674;49.152;11.918;2023-05-07T13:37:33;96029.66;;;26.75
13219;BMP180;6674;49.152;11.918;2023-05-07T13:40:00;96021.69;;;26.83
13219;BMP180;6674;49.152;11.918;2023-05-07T13:42:26;96023.13;;;26.81
13219;BMP180;6674;49.152;11.918;2023-05-07T13:44:53;96010.97;;;26.80
13219;BMP180;6674;49.152;11.918;2023-05-07T13:47:19;96006.94;;;26.91
13219;BMP180;6674;49.152;11.918;2023-05-07T13:49:46;96009.53;;;26.99
13219;BMP180;6674;49.152;11.918;2023-05-07T13:52:16;96005.34;;;27.06
13219;BMP180;6674;49.152;11.918;2023-05-07T13:54:42;96012.00;;;27.12
13219;BMP180;6674;49.152;11.918;2023-05-07T13:57:09;96012.97;;;27.08
13219;BMP180;6674;49.152;11.918;2023-05-07T13:59:36;96013.78;;;27.29
13219;BMP180;6674;49.152;11.918;2023-05-07T14:02:03;96014.63;;;27.12
13219;BMP180;6674;49.152;11.918;2023-05-07T14:04:30;96009.69;;;27.02
13219;BMP180;6674;49.152;11.918;2023-05-07T14:06:57;96007.38;;;26.92
13219;BMP180;6674;49.152;11.918;2023-05-07T14:09:25;96016.44;;;26.92
13219;BMP180;6674;49.152;11.918;2023-05-07T14:11:52;96006.09;;;27.07
13219;BMP180;6674;49.152;11.918;2023-05-07T14:14:19;96014.16;;;27.19
13219;BMP180;6674;49.152;11.918;2023-05-07T14:16:46;96010.56;;;27.23
13219;BMP180;6674;49.152;11.918;2023-05-07T14:19:13;96018.56;;;26.98